Time;durP1;ratioP1;P1;durP2;ratioP2;P2;SDS_P1;SDS_P2;PMS_P1;PMS_P2;Temp;Humidity;BMP_temperature;BMP_pressure;BME280_temperature;BME280_humidity;BME280_pressure;Samples;Min_cycle;Max_cycle;Signal;HPM_P1;HPM_P2
2023/02/12 00:00:32;;;;;;;9.95;2.53;;;8.20;99.90;;;;;;4905718;29;20057;-91
2023/02/12 00:02:58;;;;;;;11.00;2.85;;;8.10;99.90;;;;;;4912400;29;20804;-91
2023/02/12 00:05:24;;;;;;;7.00;2.70;;;8.10;99.90;;;;;;4903068;29;20025;-92
2023/02/12 00:07:49;;;;;;;7.28;2.90;;;8.10;99.90;;;;;;4904812;29;20510;-91
2023/02/12 00:10:15;;;;;;;11.88;4.13;;;8.10;99.90;;;;;;4902864;29;20037;-90
2023/02/12 00:12:41;;;;;;;6.72;3.40;;;8.00;99.90;;;;;;4905346;29;20016;-91
2023/02/12 00:15:07;;;;;;;7.50;2.80;;;8.00;99.90;;;;;;4905861;29;20483;-90
2023/02/12 00:17:33;;;;;;;10.32;3.60;;;7.90;99.90;;;;;;4896297;29;20056;-91
2023/02/12 00:19:59;;;;;;;10.05;3.97;;;7.80;99.90;;;;;;4903996;29;20478;-91
2023/02/12 00:22:25;;;;;;;8.13;3.35;;;7.80;99.90;;;;;;4906349;29;20037;-89
2023/02/12 00:24:50;;;;;;;10.70;3.60;;;7.80;99.90;;;;;;4910565;29;20068;-90
2023/02/12 00:27:16;;;;;;;8.80;3.53;;;7.80;99.90;;;;;;4906607;29;20056;-91
2023/02/12 00:29:41;;;;;;;7.85;3.17;;;7.80;99.90;;;;;;4915506;29;20036;-91
2023/02/12 00:32:07;;;;;;;10.35;4.03;;;7.80;99.90;;;;;;4912504;29;20035;-91
2023/02/12 00:34:33;;;;;;;8.95;3.60;;;7.80;99.90;;;;;;4912882;29;20028;-90
2023/02/12 00:36:58;;;;;;;11.70;3.67;;;7.80;99.90;;;;;;4922515;29;20055;-91
2023/02/12 00:39:24;;;;;;;10.40;3.78;;;7.70;99.90;;;;;;4922155;29;20028;-91
2023/02/12 00:41:50;;;;;;;9.82;4.38;;;7.70;99.90;;;;;;4923687;29;20056;-90
2023/02/12 00:44:15;;;;;;;11.02;3.67;;;7.70;99.90;;;;;;4919750;29;20032;-90
2023/02/12 00:46:41;;;;;;;13.15;3.45;;;7.70;99.90;;;;;;4917539;29;20028;-90
2023/02/12 00:49:07;;;;;;;10.25;3.67;;;7.70;99.90;;;;;;4925227;29;20025;-90
2023/02/12 00:51:32;;;;;;;10.93;3.70;;;7.70;99.90;;;;;;4925429;29;20036;-91
2023/02/12 00:53:58;;;;;;;10.10;4.72;;;7.70;99.90;;;;;;4932914;29;20055;-91
2023/02/12 00:56:23;;;;;;;22.73;9.88;;;7.60;99.90;;;;;;4907897;29;20032;-91
2023/02/12 00:58:49;;;;;;;21.90;8.48;;;7.60;99.90;;;;;;4912687;29;20101;-91
2023/02/12 01:01:15;;;;;;;15.85;6.82;;;7.60;99.90;;;;;;4917012;29;20027;-91
2023/02/12 01:03:41;;;;;;;19.63;7.13;;;7.50;99.90;;;;;;4916920;29;20032;-89
2023/02/12 01:06:07;;;;;;;11.95;5.80;;;7.60;99.90;;;;;;4919575;29;20020;-91
2023/02/12 01:08:33;;;;;;;7.53;4.50;;;7.50;99.90;;;;;;4915079;29;20064;-91
2023/02/12 01:11:01;;;;;;;10.32;4.43;;;7.60;99.90;;;;;;4907612;29;20036;-92
2023/02/12 01:13:29;;;;;;;13.07;3.70;;;7.60;99.90;;;;;;4914536;29;20158;-92
2023/02/12 01:16:12;;;;;;;19.90;4.13;;;7.60;99.90;;;;;;4907992;29;20036;-91
2023/02/12 01:18:38;;;;;;;9.40;3.90;;;7.60;99.90;;;;;;4915594;29;20032;-92
2023/02/12 01:21:12;;;;;;;6.03;3.38;;;7.50;99.90;;;;;;4907383;29;20063;-92
2023/02/12 01:23:39;;;;;;;8.75;3.45;;;7.60;99.90;;;;;;4899040;29;20534;-92
2023/02/12 01:26:06;;;;;;;7.18;3.75;;;7.50;99.90;;;;;;4905523;29;20155;-93
2023/02/12 01:28:32;;;;;;;8.00;3.70;;;7.50;99.90;;;;;;4905224;29;20027;-90
2023/02/12 01:30:58;;;;;;;8.93;3.97;;;7.50;99.90;;;;;;4917479;29;20036;-90
2023/02/12 01:33:23;;;;;;;9.85;3.83;;;7.50;99.90;;;;;;4906868;29;20020;-90
2023/02/12 01:35:49;;;;;;;6.35;3.28;;;7.50;99.90;;;;;;4905574;29;20131;-91
2023/02/12 01:38:15;;;;;;;11.10;3.67;;;7.50;99.90;;;;;;4909827;29;20024;-92
2023/02/12 01:40:40;;;;;;;7.72;3.53;;;7.50;99.90;;;;;;4911085;29;20389;-92
2023/02/12 01:43:11;;;;;;;11.52;3.47;;;7.50;99.90;;;;;;4918891;29;20037;-90
2023/02/12 01:45:44;;;;;;;14.35;3.90;;;7.50;99.90;;;;;;4925473;29;20123;-90
2023/02/12 01:48:11;;;;;;;9.77;3.67;;;7.50;99.90;;;;;;4917210;29;20032;-90
2023/02/12 01:50:37;;;;;;;9.75;3.47;;;7.50;99.90;;;;;;4922095;29;20040;-90
2023/02/12 01:53:03;;;;;;;8.98;3.30;;;7.40;99.90;;;;;;4913735;29;20021;-88
2023/02/12 01:55:29;;;;;;;8.63;4.38;;;7.40;99.90;;;;;;4916831;29;20542;-91
2023/02/12 01:57:55;;;;;;;13.35;4.05;;;7.40;99.90;;;;;;4912437;29;20028;-92
2023/02/12 02:00:23;;;;;;;6.97;3.65;;;7.40;99.90;;;;;;4919861;29;20029;-92
2023/02/12 02:02:57;;;;;;;9.95;3.38;;;7.40;99.90;;;;;;4925300;29;20049;-91
2023/02/12 02:05:47;;;;;;;10.02;3.63;;;7.40;99.90;;;;;;4924597;29;20040;-92
2023/02/12 02:08:13;;;;;;;11.70;3.95;;;7.40;99.90;;;;;;4914526;29;20037;-90
2023/02/12 02:10:39;;;;;;;8.82;3.83;;;7.40;99.90;;;;;;4931345;29;20055;-91
2023/02/12 02:15:54;;;;;;;10.95;4.03;;;7.30;99.90;;;;;;4920423;29;20068;-92
2023/02/12 02:18:30;;;;;;;13.00;5.65;;;7.30;99.90;;;;;;4938555;29;20024;-91
2023/02/12 02:21:30;;;;;;;8.02;3.38;;;7.30;99.90;;;;;;4924004;29;20039;-90
2023/02/12 02:24:05;;;;;;;12.52;4.45;;;7.30;99.90;;;;;;4911361;29;20020;-91
2023/02/12 02:26:49;;;;;;;10.85;3.55;;;7.20;99.90;;;;;;4916946;29;20021;-91
2023/02/12 02:29:24;;;;;;;11.52;3.38;;;7.20;99.90;;;;;;4905798;29;20020;-90
2023/02/12 02:32:07;;;;;;;9.95;4.95;;;7.20;99.90;;;;;;4902667;29;20028;-91
2023/02/12 02:34:39;;;;;;;15.18;4.78;;;7.20;99.90;;;;;;4917506;29;20158;-91
2023/02/12 02:37:36;;;;;;;7.10;3.10;;;7.20;99.90;;;;;;4916737;29;20074;-92
2023/02/12 02:40:13;;;;;;;7.95;3.28;;;7.20;99.90;;;;;;4898613;29;20100;-93
2023/02/12 02:43:07;;;;;;;11.63;3.63;;;7.20;99.90;;;;;;4900974;29;20036;-92
2023/02/12 02:45:45;;;;;;;6.22;3.67;;;7.20;99.90;;;;;;4899754;29;20044;-91
2023/02/12 02:48:17;;;;;;;8.40;3.63;;;7.10;99.90;;;;;;4908774;29;20524;-91
2023/02/12 02:50:48;;;;;;;12.38;3.95;;;7.10;99.90;;;;;;4915957;29;20048;-90
2023/02/12 02:53:20;;;;;;;11.15;3.60;;;7.10;99.90;;;;;;4909742;29;20077;-92
2023/02/12 02:55:53;;;;;;;9.77;3.55;;;7.10;99.90;;;;;;4917287;29;20128;-91
2023/02/12 02:58:31;;;;;;;9.68;3.17;;;7.10;99.90;;;;;;4901756;29;20039;-92
2023/02/12 03:01:16;;;;;;;9.30;3.67;;;7.10;99.90;;;;;;4916312;29;20033;-91
2023/02/12 03:04:16;;;;;;;6.90;3.50;;;7.10;99.90;;;;;;4917081;29;20040;-90
2023/02/12 03:07:11;;;;;;;12.55;4.93;;;7.10;99.90;;;;;;4891888;29;20515;-92
2023/02/12 03:09:50;;;;;;;8.68;3.38;;;7.00;99.90;;;;;;4916826;29;20068;-90
2023/02/12 03:12:26;;;;;;;4.30;3.20;;;7.00;99.90;;;;;;4915335;29;20064;-91
2023/02/12 03:15:07;;;;;;;10.15;3.90;;;7.00;99.90;;;;;;4906462;29;20091;-90
2023/02/12 03:17:44;;;;;;;10.70;3.58;;;7.00;99.90;;;;;;4915696;29;20032;-90
2023/02/12 03:20:23;;;;;;;19.50;3.92;;;7.00;99.90;;;;;;4906918;29;20039;-89
2023/02/12 03:22:57;;;;;;;8.85;3.55;;;7.00;99.90;;;;;;4915452;29;20072;-92
2023/02/12 03:25:32;;;;;;;7.63;3.90;;;7.00;99.90;;;;;;4914544;29;20040;-91
2023/02/12 03:28:03;;;;;;;16.35;3.60;;;7.00;99.90;;;;;;4906955;29;20024;-91
2023/02/12 03:30:58;;;;;;;7.03;3.53;;;7.00;99.90;;;;;;4915431;29;20040;-90
2023/02/12 03:33:52;;;;;;;6.93;3.88;;;7.00;99.90;;;;;;4914718;29;20032;-89
2023/02/12 03:36:51;;;;;;;13.23;3.80;;;6.90;99.90;;;;;;4915373;29;20032;-92
2023/02/12 03:39:44;;;;;;;8.75;3.90;;;6.90;99.90;;;;;;4915370;29;20040;-92
2023/02/12 03:42:33;;;;;;;10.63;3.65;;;6.90;99.90;;;;;;4907240;29;20471;-91
2023/02/12 03:45:08;;;;;;;10.07;4.28;;;6.90;99.90;;;;;;4913908;29;20523;-91
2023/02/12 03:47:40;;;;;;;9.82;3.40;;;6.90;99.90;;;;;;4915890;29;20060;-91
2023/02/12 03:50:09;;;;;;;10.25;3.88;;;6.90;99.90;;;;;;4914668;29;20029;-93
2023/02/12 03:52:36;;;;;;;7.55;3.47;;;6.90;99.90;;;;;;4913973;29;20017;-91
2023/02/12 03:55:02;;;;;;;11.30;4.28;;;6.90;99.90;;;;;;4914882;29;20115;-92
2023/02/12 03:57:34;;;;;;;8.60;4.15;;;6.90;99.90;;;;;;4913992;29;20032;-92
2023/02/12 04:00:22;;;;;;;8.02;3.35;;;6.90;99.90;;;;;;4915031;29;20029;-92
2023/02/12 04:02:49;;;;;;;13.75;3.95;;;6.90;99.90;;;;;;4914006;29;20033;-92
2023/02/12 04:05:23;;;;;;;9.88;3.47;;;6.90;99.90;;;;;;4906740;29;20120;-91
2023/02/12 04:07:51;;;;;;;7.65;3.70;;;6.90;99.90;;;;;;4916513;29;20028;-92
2023/02/12 04:10:19;;;;;;;12.35;3.97;;;6.90;99.90;;;;;;4915766;29;20040;-91
2023/02/12 04:12:54;;;;;;;8.57;3.65;;;6.90;99.90;;;;;;4905677;29;20044;-91
2023/02/12 04:15:31;;;;;;;12.77;4.32;;;6.90;99.90;;;;;;4913831;29;20052;-91
2023/02/12 04:18:33;;;;;;;8.27;3.67;;;6.90;99.90;;;;;;4916266;29;20028;-91
2023/02/12 04:21:26;;;;;;;11.45;3.78;;;6.80;99.90;;;;;;4912562;29;20065;-91
2023/02/12 04:24:27;;;;;;;13.32;3.75;;;6.80;99.90;;;;;;4906513;29;20055;-90
2023/02/12 04:27:24;;;;;;;9.35;3.55;;;6.90;99.90;;;;;;4906101;29;20036;-92
2023/02/12 04:29:59;;;;;;;7.47;3.20;;;6.90;99.90;;;;;;4890175;29;20032;-90
2023/02/12 04:32:42;;;;;;;8.80;3.20;;;7.00;99.90;;;;;;4906767;29;20024;-91
2023/02/12 04:35:22;;;;;;;12.82;3.83;;;6.90;99.90;;;;;;4896890;29;20064;-91
2023/02/12 04:38:10;;;;;;;11.48;3.53;;;6.90;99.90;;;;;;4887541;29;20036;-91
2023/02/12 04:40:39;;;;;;;5.97;3.10;;;6.90;99.90;;;;;;4885023;29;20040;-91
2023/02/12 04:43:05;;;;;;;10.05;2.92;;;6.80;99.90;;;;;;4896301;29;20028;-91
2023/02/12 04:45:33;;;;;;;10.18;3.70;;;6.80;99.90;;;;;;4897768;29;20412;-90
2023/02/12 04:47:59;;;;;;;6.38;3.20;;;6.80;99.90;;;;;;4891014;29;20035;-91
2023/02/12 04:50:25;;;;;;;8.48;3.55;;;6.90;99.90;;;;;;4895508;29;20399;-92
2023/02/12 04:52:51;;;;;;;9.57;3.80;;;6.90;99.90;;;;;;4890790;29;20033;-91
2023/02/12 04:55:17;;;;;;;8.15;3.35;;;6.80;99.90;;;;;;4903353;29;20047;-89
2023/02/12 04:57:43;;;;;;;7.72;3.28;;;6.80;99.90;;;;;;4902397;29;20040;-92
2023/02/12 05:00:12;;;;;;;6.63;3.47;;;6.80;99.90;;;;;;4892318;29;20040;-92
2023/02/12 05:02:37;;;;;;;9.77;3.65;;;6.80;99.90;;;;;;4890480;29;20033;-93
2023/02/12 05:05:03;;;;;;;10.07;3.72;;;6.90;99.90;;;;;;4895529;29;20372;-92
2023/02/12 05:07:29;;;;;;;8.40;3.28;;;6.90;99.90;;;;;;4907760;29;20047;-92
2023/02/12 05:09:54;;;;;;;4.55;2.88;;;6.80;99.90;;;;;;4907155;29;20115;-91
2023/02/12 05:12:20;;;;;;;7.82;2.80;;;6.80;99.90;;;;;;4907302;29;20024;-90
2023/02/12 05:14:46;;;;;;;7.47;3.05;;;6.80;99.90;;;;;;4906889;29;20127;-93
2023/02/12 05:17:11;;;;;;;9.45;3.47;;;6.80;99.90;;;;;;4906718;29;20032;-91
2023/02/12 05:19:37;;;;;;;10.45;3.95;;;6.80;99.90;;;;;;4900002;29;20032;-92
2023/02/12 05:22:03;;;;;;;7.22;3.17;;;6.80;99.90;;;;;;4906154;29;20028;-91
2023/02/12 05:24:29;;;;;;;8.20;3.20;;;6.80;99.90;;;;;;4905042;29;20060;-92
2023/02/12 05:26:54;;;;;;;11.10;3.60;;;6.80;99.90;;;;;;4905549;29;20032;-90
2023/02/12 05:29:20;;;;;;;10.68;3.05;;;6.70;99.90;;;;;;4914390;29;20025;-92
2023/02/12 05:31:46;;;;;;;3.90;3.03;;;6.60;99.90;;;;;;4905684;29;20104;-91
2023/02/12 05:34:12;;;;;;;12.13;3.30;;;6.60;99.90;;;;;;4903746;29;20043;-91
2023/02/12 05:36:38;;;;;;;13.60;5.45;;;6.60;99.90;;;;;;4905647;29;20044;-90
2023/02/12 05:39:06;;;;;;;8.20;3.50;;;6.60;99.90;;;;;;4911380;29;20463;-92
2023/02/12 05:41:35;;;;;;;15.20;4.13;;;6.60;99.90;;;;;;4903131;29;20461;-91
2023/02/12 05:44:05;;;;;;;11.20;3.30;;;6.60;99.90;;;;;;4896068;29;20515;-91
2023/02/12 05:46:31;;;;;;;6.20;3.47;;;6.60;99.90;;;;;;4911928;29;20052;-90
2023/02/12 05:48:58;;;;;;;9.43;4.10;;;6.60;99.90;;;;;;4904388;29;20115;-91
2023/02/12 05:51:25;;;;;;;9.45;3.83;;;6.60;99.90;;;;;;4905351;29;20040;-90
2023/02/12 05:53:55;;;;;;;7.50;3.63;;;6.60;99.90;;;;;;4905406;29;20029;-90
2023/02/12 05:56:24;;;;;;;11.48;4.07;;;6.60;99.90;;;;;;4913888;29;20024;-90
2023/02/12 05:59:04;;;;;;;13.45;4.07;;;6.60;99.90;;;;;;4912227;29;20035;-91
2023/02/12 06:01:35;;;;;;;8.05;3.83;;;6.60;99.90;;;;;;4912880;29;20080;-90
2023/02/12 06:04:02;;;;;;;10.00;4.13;;;6.60;99.90;;;;;;4904962;29;20124;-90
2023/02/12 06:06:29;;;;;;;10.50;3.65;;;6.60;99.90;;;;;;4905274;29;20032;-90
2023/02/12 06:08:55;;;;;;;6.95;3.35;;;6.60;99.90;;;;;;4904555;29;20126;-90
2023/02/12 06:11:20;;;;;;;8.65;3.55;;;6.60;99.90;;;;;;4905572;29;20123;-92
2023/02/12 06:13:47;;;;;;;9.35;4.10;;;6.60;99.90;;;;;;4905662;29;20028;-91
2023/02/12 06:16:21;;;;;;;7.97;3.92;;;6.60;99.90;;;;;;4906337;29;20065;-92
2023/02/12 06:18:47;;;;;;;7.50;3.45;;;6.60;99.90;;;;;;4916835;29;20020;-90
2023/02/12 06:21:14;;;;;;;8.43;3.75;;;6.60;99.90;;;;;;4908481;29;20024;-91
2023/02/12 06:23:40;;;;;;;10.13;4.40;;;6.60;99.90;;;;;;4920874;29;20029;-92
2023/02/12 06:26:06;;;;;;;7.70;3.45;;;6.60;99.90;;;;;;4915368;29;20526;-90
2023/02/12 06:28:32;;;;;;;6.18;3.60;;;6.50;99.90;;;;;;4910536;29;20524;-92
2023/02/12 06:30:57;;;;;;;9.73;2.83;;;6.50;99.90;;;;;;4908793;29;20115;-92
2023/02/12 06:33:23;;;;;;;10.23;4.13;;;6.50;99.90;;;;;;4908184;29;20021;-92
2023/02/12 06:35:48;;;;;;;11.60;4.20;;;6.50;99.90;;;;;;4906931;29;20036;-93
2023/02/12 06:38:14;;;;;;;8.02;4.20;;;6.50;99.90;;;;;;4900178;29;20023;-92
2023/02/12 06:40:40;;;;;;;9.55;3.97;;;6.50;99.90;;;;;;4917482;29;20028;-92
2023/02/12 06:43:06;;;;;;;8.45;4.40;;;6.50;99.90;;;;;;4907704;29;20067;-93
2023/02/12 06:45:32;;;;;;;23.80;6.10;;;6.50;99.90;;;;;;4907024;29;20306;-92
2023/02/12 06:47:58;;;;;;;9.05;3.67;;;6.50;99.90;;;;;;4915288;29;20028;-92
2023/02/12 06:50:24;;;;;;;13.02;4.97;;;6.40;99.90;;;;;;4907908;29;20040;-92
2023/02/12 06:52:50;;;;;;;12.40;4.35;;;6.40;99.90;;;;;;4906601;29;20032;-90
2023/02/12 06:55:16;;;;;;;6.38;4.03;;;6.50;99.90;;;;;;4908009;29;20025;-92
2023/02/12 06:57:42;;;;;;;9.73;4.15;;;6.40;99.90;;;;;;4906765;29;20039;-91
2023/02/12 07:00:08;;;;;;;6.57;3.10;;;6.50;99.90;;;;;;4901131;29;20487;-91
2023/02/12 07:02:34;;;;;;;10.25;3.97;;;6.50;99.90;;;;;;4907781;29;20035;-92
2023/02/12 07:04:59;;;;;;;8.05;3.70;;;6.50;99.90;;;;;;4916448;29;20028;-92
2023/02/12 07:07:25;;;;;;;6.78;4.20;;;6.40;99.90;;;;;;4906977;29;20028;-91
2023/02/12 07:09:50;;;;;;;8.13;4.18;;;6.50;99.90;;;;;;4907627;29;20037;-90
2023/02/12 07:12:16;;;;;;;7.38;3.83;;;6.40;99.90;;;;;;4909051;29;20071;-90
2023/02/12 07:14:42;;;;;;;7.20;3.85;;;6.40;99.90;;;;;;4907996;29;20120;-92
2023/02/12 07:17:08;;;;;;;11.18;4.32;;;6.40;99.90;;;;;;4907734;29;20025;-91
2023/02/12 07:19:35;;;;;;;7.30;3.63;;;6.40;99.90;;;;;;4917045;29;20020;-90
2023/02/12 07:22:00;;;;;;;8.50;4.93;;;6.40;99.90;;;;;;4923078;29;20049;-91
2023/02/12 07:24:26;;;;;;;8.05;4.13;;;6.50;99.90;;;;;;4909747;29;20162;-90
2023/02/12 07:26:52;;;;;;;8.15;4.30;;;6.50;99.90;;;;;;4906530;29;20059;-90
2023/02/12 07:29:17;;;;;;;7.55;4.55;;;6.50;99.90;;;;;;4904812;29;20024;-90
2023/02/12 07:31:43;;;;;;;9.70;5.05;;;6.40;99.90;;;;;;4896871;29;20131;-89
2023/02/12 07:34:10;;;;;;;8.95;4.35;;;6.50;99.90;;;;;;4916494;29;20032;-90
2023/02/12 07:36:36;;;;;;;7.57;4.35;;;6.50;99.90;;;;;;4908347;29;20059;-90
2023/02/12 07:39:02;;;;;;;11.57;5.07;;;6.50;99.90;;;;;;4907596;29;20028;-89
2023/02/12 07:41:30;;;;;;;10.55;4.50;;;6.50;99.90;;;;;;4901339;29;20036;-88
2023/02/12 07:44:06;;;;;;;8.48;4.20;;;6.60;99.90;;;;;;4907379;29;20196;-91
2023/02/12 07:46:52;;;;;;;9.27;4.90;;;6.70;99.90;;;;;;4914950;29;20060;-90
2023/02/12 07:49:21;;;;;;;11.30;4.78;;;6.70;99.90;;;;;;4901829;29;20033;-89
2023/02/12 07:51:48;;;;;;;9.82;4.53;;;6.80;99.90;;;;;;4905933;29;20032;-88
2023/02/12 07:54:14;;;;;;;8.55;4.75;;;6.80;99.90;;;;;;4907931;29;20128;-91
2023/02/12 07:56:41;;;;;;;8.98;4.03;;;6.80;99.90;;;;;;4907737;29;20483;-92
2023/02/12 07:59:10;;;;;;;8.02;4.55;;;6.80;99.90;;;;;;4908972;29;20112;-92
2023/02/12 08:01:38;;;;;;;7.68;3.70;;;6.80;99.90;;;;;;4901468;29;20043;-91
2023/02/12 08:04:09;;;;;;;6.97;4.22;;;6.90;99.90;;;;;;4920425;29;20029;-91
2023/02/12 08:06:38;;;;;;;11.25;4.63;;;6.90;99.90;;;;;;4912044;29;20032;-93
2023/02/12 08:09:05;;;;;;;6.03;3.88;;;6.90;99.90;;;;;;4912950;29;20051;-91
2023/02/12 08:11:32;;;;;;;5.75;3.78;;;6.90;99.90;;;;;;4920317;29;20092;-93
2023/02/12 08:13:58;;;;;;;10.98;3.78;;;6.90;99.90;;;;;;4904803;29;20029;-94
2023/02/12 08:16:26;;;;;;;8.40;3.83;;;6.90;99.90;;;;;;4903807;29;20025;-94
2023/02/12 08:18:53;;;;;;;8.25;4.07;;;6.90;99.90;;;;;;4905563;29;20503;-93
2023/02/12 08:21:21;;;;;;;8.10;4.30;;;6.90;99.90;;;;;;4904380;29;20067;-95
2023/02/12 08:23:50;;;;;;;10.80;4.15;;;6.90;99.90;;;;;;4905921;29;20124;-93
2023/02/12 08:26:22;;;;;;;11.35;4.78;;;7.00;99.90;;;;;;4898624;29;20036;-94
2023/02/12 08:28:56;;;;;;;7.80;4.28;;;6.90;99.90;;;;;;4913890;29;20037;-95
2023/02/12 08:31:25;;;;;;;7.45;3.88;;;6.90;99.90;;;;;;4904513;29;20128;-95
2023/02/12 08:33:53;;;;;;;17.05;8.18;;;6.90;99.90;;;;;;4896892;29;20035;-95
2023/02/12 08:36:24;;;;;;;10.98;6.05;;;6.90;99.90;;;;;;4912828;29;20032;-95
2023/02/12 08:38:50;;;;;;;15.32;8.02;;;6.90;99.90;;;;;;4914178;29;20021;-94
2023/02/12 08:41:21;;;;;;;14.15;6.70;;;6.90;99.90;;;;;;4904822;29;20035;-95
2023/02/12 08:43:48;;;;;;;13.75;6.90;;;6.90;99.90;;;;;;4914910;29;20032;-94
2023/02/12 08:46:17;;;;;;;16.45;7.50;;;6.90;99.90;;;;;;4906126;29;20051;-94
2023/02/12 08:48:44;;;;;;;13.48;6.95;;;6.90;99.90;;;;;;4903933;29;20031;-93
2023/02/12 08:51:18;;;;;;;12.00;6.97;;;6.90;99.90;;;;;;4904603;29;20040;-94
2023/02/12 08:53:46;;;;;;;17.52;7.30;;;6.90;99.90;;;;;;4905302;29;20029;-92
2023/02/12 08:56:14;;;;;;;14.43;8.30;;;6.90;99.90;;;;;;4905429;29;20029;-94
2023/02/12 08:58:41;;;;;;;11.93;6.47;;;6.90;99.90;;;;;;4903522;29;20021;-94
2023/02/12 09:01:19;;;;;;;10.80;6.47;;;6.90;99.90;;;;;;4904893;29;20391;-93
2023/02/12 09:03:46;;;;;;;13.00;6.90;;;7.00;99.90;;;;;;4903227;29;20494;-93
2023/02/12 09:06:12;;;;;;;11.00;6.65;;;6.90;99.90;;;;;;4896826;29;20242;-92
2023/02/12 09:08:39;;;;;;;15.23;8.38;;;7.00;99.90;;;;;;4911282;29;20060;-93
2023/02/12 09:11:10;;;;;;;15.27;7.35;;;7.00;99.90;;;;;;4897681;29;20032;-94
2023/02/12 09:13:35;;;;;;;;;;;7.00;99.90;;;;;;4898100;29;20054;-94
2023/02/12 09:16:06;;;;;;;10.80;6.65;;;7.00;99.90;;;;;;4897484;29;19907;-94
2023/02/12 09:18:32;;;;;;;17.92;6.90;;;7.00;99.90;;;;;;4895194;29;20083;-94
2023/02/12 09:21:53;;;;;;;12.82;6.75;;;7.00;99.90;;;;;;4897284;29;20084;-93
2023/02/12 09:24:18;;;;;;;12.25;6.70;;;7.00;99.90;;;;;;4881397;29;20032;-93
2023/02/12 09:26:44;;;;;;;9.45;5.85;;;7.00;99.90;;;;;;4881467;29;20032;-93
2023/02/12 09:29:13;;;;;;;14.13;6.40;;;7.10;99.90;;;;;;4880886;29;20036;-95
2023/02/12 09:31:39;;;;;;;14.15;7.55;;;7.10;99.90;;;;;;4881173;29;20037;-93
2023/02/12 09:34:05;;;;;;;12.80;7.47;;;7.10;99.90;;;;;;4896448;29;20028;-94
2023/02/12 09:36:32;;;;;;;15.43;7.97;;;7.10;99.90;;;;;;4881922;29;20040;-92
2023/02/12 09:38:59;;;;;;;9.88;6.25;;;7.10;99.90;;;;;;4879189;29;20024;-94
2023/02/12 09:42:00;;;;;;;19.58;8.95;;;7.20;99.90;;;;;;4865791;29;20044;-93
2023/02/12 09:44:26;;;;;;;20.25;10.85;;;7.20;99.90;;;;;;4868264;29;20033;-94
2023/02/12 09:50:44;;;;;;;20.63;12.73;;;7.30;99.90;;;;;;4879516;29;20128;-94
2023/02/12 13:41:35;;;;;;;17.55;11.10;;;8.10;99.90;;;;;;5163463;23;20054;-89
2023/02/12 13:44:04;;;;;;;15.90;10.48;;;8.20;99.90;;;;;;4958281;28;20094;-90
2023/02/12 13:46:51;;;;;;;18.35;11.40;;;8.20;99.90;;;;;;4964964;28;20279;-90
2023/02/12 13:49:50;;;;;;;19.52;11.93;;;8.20;99.90;;;;;;4961553;28;20042;-90
2023/02/12 13:52:48;;;;;;;18.35;11.48;;;8.20;99.90;;;;;;4948353;28;20047;-90
2023/02/12 13:55:53;;;;;;;18.13;11.73;;;8.30;99.90;;;;;;4966835;28;20128;-89
2023/02/12 13:58:36;;;;;;;16.95;10.15;;;8.30;99.90;;;;;;4961994;28;20047;-89
2023/02/12 14:01:09;;;;;;;16.90;9.93;;;8.40;99.90;;;;;;4952386;28;20023;-89
2023/02/12 14:03:36;;;;;;;16.13;11.20;;;8.40;99.90;;;;;;4955523;28;20110;-88
2023/02/12 14:06:20;;;;;;;16.52;12.13;;;8.40;99.90;;;;;;4951351;29;20042;-89
2023/02/12 14:09:09;;;;;;;17.73;11.38;;;8.40;99.90;;;;;;4951500;29;20063;-89
2023/02/12 14:11:51;;;;;;;18.30;11.38;;;8.40;99.90;;;;;;4942803;29;20047;-89
2023/02/12 14:14:34;;;;;;;19.27;11.18;;;8.40;99.90;;;;;;4955794;28;20069;-89
2023/02/12 14:17:28;;;;;;;16.17;11.07;;;8.40;99.90;;;;;;4938080;29;20035;-90
2023/02/12 14:20:20;;;;;;;18.50;12.20;;;8.50;99.90;;;;;;4937950;29;20057;-89
2023/02/12 14:22:46;;;;;;;19.48;12.10;;;8.50;99.90;;;;;;4943887;29;20549;-90
2023/02/12 14:25:26;;;;;;;20.58;12.95;;;8.50;99.90;;;;;;4954463;29;20059;-90
2023/02/12 14:28:05;;;;;;;21.30;13.32;;;8.50;99.90;;;;;;4936300;29;20028;-91
2023/02/12 14:30:40;;;;;;;20.65;12.90;;;8.50;99.90;;;;;;4952773;29;20034;-90
2023/02/12 14:33:05;;;;;;;23.08;12.13;;;8.50;99.90;;;;;;4934853;29;20515;-91
2023/02/12 14:35:35;;;;;;;21.88;13.57;;;8.50;99.90;;;;;;4936249;29;20023;-91
2023/02/12 14:38:19;;;;;;;19.13;13.10;;;8.50;99.90;;;;;;4937116;28;20564;-90
2023/02/12 14:40:49;;;;;;;22.63;13.88;;;8.50;99.90;;;;;;4938398;29;20047;-90
2023/02/12 14:46:26;;;;;;;21.02;13.55;;;8.50;99.90;;;;;;4957108;28;20228;-90
2023/02/12 14:49:03;;;;;;;22.23;14.35;;;8.40;99.90;;;;;;4940364;29;20038;-90
2023/02/12 14:52:09;;;;;;;27.25;15.35;;;8.40;99.90;;;;;;4955672;29;20469;-88
2023/02/12 14:55:16;;;;;;;25.15;14.60;;;8.40;99.90;;;;;;4946398;29;20091;-91
2023/02/12 14:57:42;;;;;;;23.33;14.88;;;8.30;99.90;;;;;;4940236;29;20031;-91
2023/02/12 15:00:17;;;;;;;28.05;15.60;;;8.30;99.90;;;;;;4940262;29;20043;-89
2023/02/12 15:03:25;;;;;;;32.47;17.90;;;8.30;99.90;;;;;;4936715;29;20114;-90
2023/02/12 15:05:55;;;;;;;26.92;16.73;;;8.30;99.90;;;;;;4937745;29;20374;-91
2023/02/12 15:08:39;;;;;;;30.95;20.42;;;8.30;99.90;;;;;;4937592;29;20034;-90
2023/02/12 15:11:23;;;;;;;24.40;15.00;;;8.30;99.90;;;;;;4931670;29;20039;-90
2023/02/12 15:14:04;;;;;;;28.20;15.65;;;8.20;99.90;;;;;;4952429;29;20495;-90
2023/02/12 15:16:51;;;;;;;24.55;14.15;;;8.20;99.90;;;;;;4937703;29;20035;-90
2023/02/12 15:19:39;;;;;;;27.38;15.63;;;8.20;99.90;;;;;;4955599;29;20035;-91
2023/02/12 15:22:21;;;;;;;27.05;15.57;;;8.20;99.90;;;;;;4938597;29;20180;-90
2023/02/12 15:24:53;;;;;;;29.05;16.85;;;8.20;99.90;;;;;;4937717;29;20036;-90
2023/02/12 15:27:20;;;;;;;29.42;16.05;;;8.20;99.90;;;;;;4937490;28;20038;-92
2023/02/12 15:29:51;;;;;;;28.60;14.73;;;8.20;99.90;;;;;;4939874;29;20050;-91
2023/02/12 15:32:27;;;;;;;25.67;15.63;;;8.30;99.90;;;;;;4957027;29;20039;-91
2023/02/12 15:34:56;;;;;;;27.70;15.85;;;8.30;99.90;;;;;;4939592;29;20071;-92
2023/02/12 15:37:27;;;;;;;25.67;16.05;;;8.20;99.90;;;;;;4954445;29;20066;-90
2023/02/12 15:39:57;;;;;;;23.27;15.18;;;8.20;99.90;;;;;;4956326;28;20050;-93
2023/02/12 15:42:36;;;;;;;26.45;17.15;;;8.20;99.90;;;;;;4958567;29;20182;-93
2023/02/12 15:45:14;;;;;;;30.33;14.95;;;8.20;99.90;;;;;;4935381;29;20027;-91
2023/02/12 15:47:40;;;;;;;25.50;16.02;;;8.20;99.90;;;;;;4938748;28;20031;-92
2023/02/12 15:50:15;;;;;;;23.38;15.15;;;8.10;99.90;;;;;;4938824;29;20039;-92
2023/02/12 15:52:44;;;;;;;29.27;17.20;;;8.20;99.90;;;;;;4956146;29;20031;-92
2023/02/12 15:55:29;;;;;;;29.05;15.82;;;8.10;99.90;;;;;;4937476;28;20499;-92
2023/02/12 15:58:00;;;;;;;22.58;15.50;;;8.20;99.90;;;;;;4955870;29;20040;-92
2023/02/12 16:00:46;;;;;;;25.67;14.75;;;8.20;99.90;;;;;;4939525;29;20023;-93
2023/02/12 16:03:26;;;;;;;27.30;16.95;;;8.30;99.90;;;;;;4955003;28;20034;-91
2023/02/12 16:05:55;;;;;;;29.60;16.30;;;8.30;99.90;;;;;;4955973;28;20020;-91
2023/02/12 16:08:21;;;;;;;25.05;16.30;;;8.40;99.90;;;;;;4940382;29;20605;-92
2023/02/12 16:10:49;;;;;;;28.70;15.90;;;8.40;99.90;;;;;;4965371;29;20103;-91
2023/02/12 16:13:30;;;;;;;24.52;14.77;;;8.40;99.90;;;;;;4947485;29;20019;-91
2023/02/12 16:16:06;;;;;;;22.85;13.82;;;8.40;99.90;;;;;;4950330;29;20031;-91
2023/02/12 16:18:31;;;;;;;24.10;14.40;;;8.40;99.90;;;;;;4947852;29;20090;-91
2023/02/12 16:21:19;;;;;;;22.13;13.73;;;8.30;99.90;;;;;;4957443;29;20027;-92
2023/02/12 16:23:47;;;;;;;20.30;13.50;;;8.30;99.90;;;;;;4940256;29;20050;-92
2023/02/12 16:26:25;;;;;;;22.33;14.98;;;8.20;99.90;;;;;;4957233;29;20030;-91
2023/02/12 16:28:55;;;;;;;25.70;16.27;;;8.20;99.90;;;;;;4939019;29;20453;-91
2023/02/12 16:31:24;;;;;;;19.05;12.95;;;8.10;99.90;;;;;;4946117;29;20478;-91
2023/02/12 16:33:57;;;;;;;20.98;13.82;;;8.10;99.90;;;;;;4939926;29;20102;-91
2023/02/12 16:36:23;;;;;;;19.42;13.32;;;8.10;99.90;;;;;;4939891;29;20031;-91
2023/02/12 16:38:53;;;;;;;25.65;14.45;;;8.00;99.90;;;;;;4940689;29;20027;-91
2023/02/12 16:41:18;;;;;;;20.52;14.02;;;8.00;99.90;;;;;;4956424;28;20045;-90
2023/02/12 16:43:46;;;;;;;24.58;15.68;;;8.00;99.90;;;;;;4940351;29;20118;-92
2023/02/12 16:46:15;;;;;;;21.63;14.18;;;7.90;99.90;;;;;;4938994;29;20035;-91
2023/02/12 16:48:45;;;;;;;26.20;15.82;;;8.00;99.90;;;;;;4953991;29;20035;-92
2023/02/12 16:51:24;;;;;;;25.17;16.50;;;7.90;99.90;;;;;;4936476;29;20049;-92
2023/02/12 16:53:52;;;;;;;25.65;16.23;;;7.90;99.90;;;;;;4938154;29;20027;-92
2023/02/12 16:56:20;;;;;;;26.48;16.02;;;7.90;99.90;;;;;;4959205;28;20047;-92
2023/02/12 16:58:55;;;;;;;23.45;15.10;;;7.90;99.90;;;;;;4942150;29;20118;-92
2023/02/12 17:01:25;;;;;;;30.70;17.40;;;7.80;99.90;;;;;;4941356;29;20031;-92
2023/02/12 17:03:52;;;;;;;29.80;18.02;;;7.80;99.90;;;;;;4940132;29;20023;-92
2023/02/12 17:06:20;;;;;;;27.42;17.27;;;7.70;99.90;;;;;;4940032;29;20035;-92
2023/02/12 17:08:46;;;;;;;30.58;17.13;;;7.70;99.90;;;;;;4938831;29;20031;-91
2023/02/12 17:11:16;;;;;;;25.92;17.48;;;7.70;99.90;;;;;;4951939;29;20507;-94